Main page
METAR-TAF:

METAR-TAF

Airports :

La Tontouta International Airport

Nouméa / La Tontouta, New Caledonia

latitude: 22-01S, longitude: 166-13E, elevation: 16 m

Current weather observation

The report was made 38 minutes ago, at 13:00 UTC
Wind 2 kt from variable directions
Temperature 25°C
Humidity 74%
Pressure 1013 hPa
Visibility 10 km or more
Scattered clouds at a height of 4700 ft
Broken clouds at a height of 5600 ft

METAR: NWWW 221300Z AUTO VRB02KT 9999 SCT047 BKN056 25/20 Q1013 NOSIG

Time: 00:38 (13:38 UTC)

Forecast

The report was made 2 hours and 38 minutes ago, at 11:00 UTC
Forecast valid from 22 at 12 UTC to 23 at 12 UTC
Wind 2 kt from variable directions
Visibility 10 km or more
no clouds below 1500 m and no cumulonimbus
Becoming
from 22 at 22 UTC to 22 at 24 UTC
Wind 15 kt from the South
Becoming
from 23 at 07 UTC to 23 at 09 UTC
Wind 2 kt from variable directions

TAF: NWWW 221100Z 2212/2312 VRB02KT CAVOK BECMG 2222/2224 18015KT BECMG 2307/2309 VRB02KT

Weather observations and forecasts of more than 4000 airports (METAR and TAF reports).

The available stations are represented by yellow and red dots on the map.

Hover mouse over dot to see the name of the station.

Then click to see weather observations and forecasts.

To change the map : click on the green buttons with a black cross to zoom in, on the green button with a dash to zoom out, or on the green arrows for adjacent maps.


METAR-TAF: